Time;durP1;ratioP1;P1;durP2;ratioP2;P2;SDS_P1;SDS_P2;PMS_P1;PMS_P2;Temp;Humidity;BMP_temperature;BMP_pressure;BME280_temperature;BME280_humidity;BME280_pressure;Samples;Min_cycle;Max_cycle;Signal;HPM_P1;HPM_P2
2021/04/04 00:01:34;;;;;;;0.20;0.20;;;;;;;7.15;100.00;97256.91;5074709;28;20101;-86
2021/04/04 00:04:00;;;;;;;0.35;0.35;;;;;;;7.22;100.00;97251.19;5057395;28;20042;-85
2021/04/04 00:06:26;;;;;;;0.85;0.43;;;;;;;7.23;100.00;97252.06;5057677;28;20426;-86
2021/04/04 00:08:51;;;;;;;1.80;1.58;;;;;;;7.30;100.00;97253.41;5057499;28;20032;-86
2021/04/04 00:11:17;;;;;;;0.35;0.35;;;;;;;7.30;100.00;97245.44;5057632;28;20028;-86
2021/04/04 00:13:42;;;;;;;0.65;0.55;;;;;;;7.29;100.00;97254.38;5074628;28;20097;-86
2021/04/04 00:16:08;;;;;;;0.40;0.40;;;;;;;7.29;100.00;97262.38;5057427;28;20488;-86
2021/04/04 00:18:34;;;;;;;0.40;0.40;;;;;;;7.24;100.00;97254.63;5057889;28;20035;-86
2021/04/04 00:21:00;;;;;;;0.93;0.63;;;;;;;7.25;100.00;97260.78;5074201;28;20031;-86
2021/04/04 00:23:25;;;;;;;0.40;0.30;;;;;;;7.20;100.00;97247.72;5057263;28;20027;-86
2021/04/04 00:25:51;;;;;;;0.32;0.32;;;;;;;7.26;100.00;97262.53;5057389;28;20388;-85
2021/04/04 00:28:17;;;;;;;0.68;0.68;;;;;;;7.24;100.00;97259.06;5074355;28;20028;-86
2021/04/04 00:30:42;;;;;;;0.88;0.75;;;;;;;7.25;100.00;97269.63;5056446;28;20479;-86
2021/04/04 00:33:08;;;;;;;4.95;0.75;;;;;;;7.12;100.00;97260.59;5056943;28;20020;-85
2021/04/04 00:35:34;;;;;;;0.65;0.65;;;;;;;7.19;100.00;97269.97;5073654;28;20111;-86
2021/04/04 00:38:00;;;;;;;1.63;1.23;;;;;;;7.21;99.64;97276.06;5056857;28;20062;-86
2021/04/04 00:40:29;;;;;;;4.68;1.35;;;;;;;7.14;100.00;97273.81;5057203;28;20032;-86
2021/04/04 00:42:55;;;;;;;0.38;0.38;;;;;;;7.17;100.00;97268.34;5074323;28;20479;-86
2021/04/04 00:45:27;;;;;;;0.63;0.63;;;;;;;7.15;99.95;97271.06;5093982;28;20099;-86
2021/04/04 00:47:53;;;;;;;0.47;0.47;;;;;;;7.22;100.00;97276.91;5045342;28;20060;-86
2021/04/04 00:50:22;;;;;;;6.22;1.27;;;;;;;7.21;100.00;97278.72;5057192;28;20517;-86
2021/04/04 00:52:48;;;;;;;0.65;0.65;;;;;;;7.22;100.00;97283.09;5057211;28;20077;-85
2021/04/04 00:55:15;;;;;;;0.60;0.60;;;;;;;7.20;100.00;97289.44;5073525;28;20139;-86
2021/04/04 00:57:41;;;;;;;0.80;0.70;;;;;;;7.17;100.00;97282.47;5090510;28;20024;-86
2021/04/04 01:00:15;;;;;;;1.45;0.98;;;;;;;7.28;100.00;97284.56;5056577;28;20028;-85
2021/04/04 01:02:42;;;;;;;1.85;1.52;;;;;;;7.21;100.00;97275.19;5056623;28;20099;-86
2021/04/04 01:05:10;;;;;;;1.90;0.75;;;;;;;7.23;100.00;97278.66;5107096;28;20028;-87
2021/04/04 01:07:37;;;;;;;7.78;1.38;;;;;;;7.31;100.00;97281.75;5071130;28;20101;-86
2021/04/04 01:10:05;;;;;;;0.47;0.47;;;;;;;7.28;99.92;97285.44;5120653;27;20063;-83
2021/04/04 01:12:55;;;;;;;2.05;1.55;;;;;;;7.29;98.63;97279.16;5071167;28;20028;-85
2021/04/04 01:15:59;;;;;;;1.23;1.13;;;;;;;7.34;100.00;97294.88;5046850;28;20036;-84
2021/04/04 01:18:31;;;;;;;2.22;1.23;;;;;;;7.38;98.28;97288.47;5076128;28;20044;-85
2021/04/04 01:21:00;;;;;;;1.20;1.10;;;;;;;7.34;99.24;97281.59;5073230;28;20070;-85
2021/04/04 01:23:30;;;;;;;1.45;0.85;;;;;;;7.38;99.34;97285.81;5056548;28;20388;-85
2021/04/04 01:26:18;;;;;;;2.72;0.90;;;;;;;7.36;100.00;97279.69;5090991;28;20131;-85
2021/04/04 01:28:44;;;;;;;0.65;0.65;;;;;;;7.34;99.97;97281.59;5073462;28;20028;-85
2021/04/04 01:31:10;;;;;;;2.13;1.13;;;;;;;7.32;100.00;97279.00;5056372;28;20400;-83
2021/04/04 01:33:38;;;;;;;6.88;1.15;;;;;;;7.25;96.04;97272.31;5056199;28;20039;-85
2021/04/04 01:36:07;;;;;;;1.73;0.95;;;;;;;7.30;97.42;97269.38;5056198;28;20032;-85
2021/04/04 01:38:38;;;;;;;1.95;0.95;;;;;;;7.32;96.22;97273.66;5067124;28;20031;-85
2021/04/04 01:41:13;;;;;;;0.45;0.45;;;;;;;7.39;95.81;97272.41;5111343;28;20177;-85
2021/04/04 01:43:41;;;;;;;1.20;0.80;;;;;;;7.37;95.88;97276.09;5083397;28;20522;-86
2021/04/04 01:46:07;;;;;;;1.65;1.25;;;;;;;7.43;99.62;97273.97;5059188;28;20027;-85
2021/04/04 01:48:34;;;;;;;0.70;0.57;;;;;;;7.41;97.59;97275.00;5068311;28;20418;-86
2021/04/04 01:51:00;;;;;;;4.95;1.88;;;;;;;7.45;98.98;97263.22;5114212;28;20031;-85
2021/04/04 01:53:26;;;;;;;0.70;0.60;;;;;;;7.45;99.89;97269.41;5103300;28;20407;-85
2021/04/04 01:55:52;;;;;;;1.40;0.98;;;;;;;7.32;97.86;97257.72;5048075;28;20057;-86
2021/04/04 01:58:18;;;;;;;0.65;0.45;;;;;;;7.40;98.63;97281.25;5073406;28;20074;-86
2021/04/04 02:00:44;;;;;;;1.70;1.60;;;;;;;7.36;96.47;97267.25;5036658;28;20539;-86
2021/04/04 02:03:09;;;;;;;1.33;1.13;;;;;;;7.36;98.56;97266.38;5040368;28;20515;-85
2021/04/04 02:05:35;;;;;;;1.05;0.73;;;;;;;7.29;99.73;97257.03;5039973;28;20029;-86
2021/04/04 02:08:07;;;;;;;1.20;1.02;;;;;;;7.23;99.79;97254.72;5039716;28;20092;-86
2021/04/04 02:10:34;;;;;;;5.28;1.83;;;;;;;7.24;99.70;97254.63;5033353;28;20115;-86
2021/04/04 02:13:00;;;;;;;0.73;0.52;;;;;;;7.25;100.00;97260.78;5073396;28;20080;-86
2021/04/04 02:15:29;;;;;;;0.63;0.63;;;;;;;7.18;100.00;97248.75;5040016;28;20016;-86
2021/04/04 02:17:55;;;;;;;0.50;0.45;;;;;;;7.07;100.00;97234.22;5039897;28;20032;-86
2021/04/04 02:20:22;;;;;;;11.32;1.15;;;;;;;7.14;100.00;97245.41;5039566;28;20397;-86
2021/04/04 02:22:49;;;;;;;0.38;0.38;;;;;;;7.07;99.28;97250.19;5039915;28;20035;-86
2021/04/04 02:25:16;;;;;;;1.15;1.05;;;;;;;7.00;98.03;97246.16;5039858;28;20025;-86
2021/04/04 02:27:45;;;;;;;1.38;0.90;;;;;;;7.02;97.85;97248.72;5056865;28;20020;-86
2021/04/04 02:30:14;;;;;;;1.73;1.35;;;;;;;6.99;100.00;97244.41;5039444;28;20115;-86
2021/04/04 02:32:44;;;;;;;1.92;1.35;;;;;;;7.02;100.00;97246.91;5039355;28;20029;-87
2021/04/04 02:35:11;;;;;;;0.77;0.77;;;;;;;7.07;100.00;97246.69;5039718;28;20138;-85
2021/04/04 02:37:40;;;;;;;0.50;0.50;;;;;;;6.99;100.00;97233.78;5072933;28;20498;-86
2021/04/04 02:40:09;;;;;;;2.00;1.33;;;;;;;6.99;99.65;97239.09;5039406;28;20399;-86
2021/04/04 02:42:36;;;;;;;1.27;0.52;;;;;;;7.00;99.40;97235.50;5031593;28;20400;-86
2021/04/04 02:45:05;;;;;;;2.80;1.85;;;;;;;6.98;98.90;97249.84;5072498;28;20407;-86
2021/04/04 02:47:39;;;;;;;0.77;0.77;;;;;;;7.00;100.00;97243.47;5039272;28;20032;-86
2021/04/04 02:50:06;;;;;;;1.35;1.25;;;;;;;6.96;100.00;97241.91;5039280;28;20109;-86
2021/04/04 02:52:35;;;;;;;2.55;1.50;;;;;;;6.94;99.80;97251.78;5038530;28;20039;-86
2021/04/04 02:55:02;;;;;;;1.42;1.33;;;;;;;6.92;99.64;97245.66;5060880;28;20441;-86
2021/04/04 02:57:29;;;;;;;0.40;0.40;;;;;;;6.91;98.72;97251.94;5093020;28;20035;-86
2021/04/04 02:59:59;;;;;;;0.52;0.52;;;;;;;6.90;100.00;97244.03;5076145;28;20050;-86
2021/04/04 03:02:25;;;;;;;1.95;0.88;;;;;;;6.92;100.00;97243.00;5092237;28;20032;-86
2021/04/04 03:04:51;;;;;;;2.78;2.10;;;;;;;6.87;100.00;97249.50;5059111;28;20467;-86
2021/04/04 03:07:22;;;;;;;2.17;1.23;;;;;;;6.81;100.00;97245.38;5058778;28;20024;-86
2021/04/04 03:09:50;;;;;;;5.38;1.35;;;;;;;6.91;100.00;97256.41;5075500;28;20032;-86
2021/04/04 03:12:17;;;;;;;1.48;1.35;;;;;;;6.87;100.00;97239.75;5058579;28;20035;-86
2021/04/04 03:14:43;;;;;;;3.97;2.25;;;;;;;6.90;100.00;97244.03;5075885;28;20019;-86
2021/04/04 03:17:10;;;;;;;3.25;1.70;;;;;;;6.92;100.00;97247.50;5059182;28;20027;-86
2021/04/04 03:19:38;;;;;;;3.63;1.65;;;;;;;6.82;100.00;97231.16;5058604;28;20575;-85
2021/04/04 03:22:04;;;;;;;4.70;1.15;;;;;;;6.79;100.00;97231.31;5075313;28;20453;-83
2021/04/04 03:24:30;;;;;;;4.40;1.35;;;;;;;6.75;100.00;97237.72;5075431;28;20111;-86
2021/04/04 03:26:56;;;;;;;0.63;0.57;;;;;;;6.79;100.00;97255.25;5091899;28;20020;-86
2021/04/04 03:29:22;;;;;;;2.55;1.15;;;;;;;6.77;100.00;97237.63;5058334;28;20032;-86
2021/04/04 03:31:48;;;;;;;2.28;1.35;;;;;;;6.72;100.00;97248.50;5075713;28;20040;-86
2021/04/04 03:34:14;;;;;;;0.90;0.90;;;;;;;6.76;100.00;97259.84;5075048;28;20502;-85
2021/04/04 03:36:40;;;;;;;4.60;1.20;;;;;;;6.63;100.00;97246.34;5042223;28;20115;-86
2021/04/04 03:39:07;;;;;;;3.28;1.08;;;;;;;6.61;100.00;97239.38;5058519;28;20027;-86
2021/04/04 03:41:33;;;;;;;1.08;1.05;;;;;;;6.56;100.00;97234.28;5058226;28;20181;-85
2021/04/04 03:43:59;;;;;;;1.75;1.27;;;;;;;6.53;100.00;97234.44;5075261;28;20059;-86
2021/04/04 03:46:27;;;;;;;1.00;0.93;;;;;;;6.43;100.00;97233.19;5091614;28;20050;-85
2021/04/04 03:48:54;;;;;;;2.20;1.27;;;;;;;6.39;100.00;97242.25;5058319;28;20042;-86
2021/04/04 03:51:24;;;;;;;0.70;0.70;;;;;;;6.24;100.00;97237.72;5057835;28;20028;-86
2021/04/04 03:53:52;;;;;;;1.88;1.38;;;;;;;6.16;100.00;97238.09;5057843;28;20088;-85
2021/04/04 03:56:35;;;;;;;1.10;0.98;;;;;;;6.16;100.00;97237.22;5074265;28;20047;-74
2021/04/04 03:59:06;;;;;;;0.63;0.63;;;;;;;6.12;100.00;97238.34;5057682;28;20174;-86
2021/04/04 04:01:34;;;;;;;1.08;1.00;;;;;;;6.09;100.00;97235.81;5057657;28;20479;-85
2021/04/04 04:04:02;;;;;;;2.58;1.48;;;;;;;6.17;100.00;97247.78;5057804;28;20116;-86
2021/04/04 04:06:29;;;;;;;1.13;1.08;;;;;;;6.13;100.00;97234.72;5057419;28;20177;-85
2021/04/04 04:08:56;;;;;;;7.63;3.03;;;;;;;6.14;100.00;97239.09;5074410;28;20028;-86
2021/04/04 04:11:22;;;;;;;1.23;1.15;;;;;;;6.15;100.00;97232.88;5057717;28;20032;-84
2021/04/04 04:13:48;;;;;;;6.55;2.75;;;;;;;6.15;100.00;97235.53;5057705;28;20089;-85
2021/04/04 04:16:14;;;;;;;4.97;1.88;;;;;;;6.02;100.00;97231.75;5074359;28;20036;-85
2021/04/04 04:18:43;;;;;;;6.93;2.13;;;;;;;6.04;100.00;97245.78;5057233;28;20111;-84
2021/04/04 04:21:11;;;;;;;5.78;1.88;;;;;;;6.10;100.00;97245.50;5057434;28;20580;-85
2021/04/04 04:23:37;;;;;;;2.08;1.90;;;;;;;6.13;100.00;97240.03;5057260;28;20089;-86
2021/04/04 04:26:03;;;;;;;1.23;1.15;;;;;;;6.13;100.00;97221.44;5057666;28;20032;-86
2021/04/04 04:28:29;;;;;;;5.05;2.00;;;;;;;6.18;100.00;97230.06;5057204;28;20040;-85
2021/04/04 04:30:55;;;;;;;2.10;1.25;;;;;;;6.24;100.00;97227.09;5074071;28;20549;-85
2021/04/04 04:33:21;;;;;;;3.50;1.65;;;;;;;6.30;100.00;97232.09;5056927;28;20111;-85
2021/04/04 04:35:49;;;;;;;4.28;1.67;;;;;;;6.43;100.00;97249.13;5056846;28;20051;-86
2021/04/04 04:38:16;;;;;;;7.93;3.92;;;;;;;6.37;100.00;97249.44;5057296;28;20032;-86
2021/04/04 04:40:42;;;;;;;4.47;3.17;;;;;;;6.30;100.00;97251.56;5056839;28;20032;-85
2021/04/04 04:43:09;;;;;;;18.15;3.78;;;;;;;6.42;100.00;97261.56;5057309;28;20112;-86
2021/04/04 04:45:39;;;;;;;7.40;2.05;;;;;;;6.60;100.00;97256.25;5057108;28;20032;-85
2021/04/04 04:48:06;;;;;;;3.25;2.13;;;;;;;6.76;100.00;97270.47;5091179;28;20057;-85
2021/04/04 04:50:33;;;;;;;3.97;1.88;;;;;;;6.73;100.00;97252.91;5073549;28;20096;-85
2021/04/04 04:52:59;;;;;;;2.50;2.30;;;;;;;6.91;100.00;97259.91;5074010;28;20032;-85
2021/04/04 04:55:26;;;;;;;4.07;1.92;;;;;;;7.12;100.00;97273.00;5090359;28;20044;-85
2021/04/04 04:57:53;;;;;;;0.70;0.70;;;;;;;7.14;100.00;97263.19;5056773;28;20476;-84
2021/04/04 05:00:20;;;;;;;10.25;2.05;;;;;;;7.28;100.00;97258.84;5057128;28;20089;-84
2021/04/04 05:02:45;;;;;;;1.63;1.52;;;;;;;7.42;99.84;97266.94;5073547;28;20020;-85
2021/04/04 05:05:13;;;;;;;6.20;2.67;;;;;;;7.49;97.90;97270.13;5056829;28;20030;-85
2021/04/04 05:07:40;;;;;;;4.72;3.17;;;;;;;7.61;96.35;97250.81;5056464;28;20028;-83
2021/04/04 05:10:07;;;;;;;8.20;3.25;;;;;;;7.74;93.69;97264.31;5056764;28;20446;-85
2021/04/04 05:12:34;;;;;;;1.45;1.30;;;;;;;7.76;93.26;97252.63;5057866;28;20071;-85
2021/04/04 05:15:04;;;;;;;10.32;1.95;;;;;;;7.82;94.73;97270.06;5075698;28;20044;-86
2021/04/04 05:17:36;;;;;;;3.63;2.30;;;;;;;7.80;93.30;97270.16;5056129;28;20089;-86
2021/04/04 05:20:05;;;;;;;7.85;3.53;;;;;;;7.81;93.34;97271.88;5049274;28;20028;-85
2021/04/04 05:22:30;;;;;;;3.03;2.22;;;;;;;7.71;94.00;97260.03;5056411;28;20028;-85
2021/04/04 05:24:59;;;;;;;1.75;1.23;;;;;;;7.77;94.16;97265.00;5056654;28;20481;-85
2021/04/04 05:27:24;;;;;;;4.15;1.85;;;;;;;7.97;93.52;97272.72;5091894;28;20024;-85
2021/04/04 05:29:50;;;;;;;6.40;1.77;;;;;;;8.09;91.72;97268.53;5057485;28;20107;-85
2021/04/04 05:32:16;;;;;;;2.88;1.88;;;;;;;8.28;90.62;97276.34;5090026;28;20027;-85
2021/04/04 05:34:41;;;;;;;3.13;1.42;;;;;;;8.50;88.12;97276.84;5072898;28;20051;-84
2021/04/04 05:37:08;;;;;;;3.85;2.15;;;;;;;8.85;87.99;97275.66;5056618;28;20062;-85
2021/04/04 05:39:35;;;;;;;2.35;1.60;;;;;;;9.11;85.51;97277.59;5056588;28;20023;-84
2021/04/04 05:42:04;;;;;;;2.40;2.03;;;;;;;9.23;85.15;97271.50;5056450;28;20111;-85
2021/04/04 05:44:38;;;;;;;1.13;1.02;;;;;;;9.71;83.13;97280.13;5072756;28;20016;-84
2021/04/04 05:47:08;;;;;;;7.55;1.40;;;;;;;9.84;82.69;97275.72;5099090;28;20598;-84
2021/04/04 05:49:49;;;;;;;2.63;0.85;;;;;;;9.90;79.76;97286.03;5073548;28;20066;-85
2021/04/04 05:52:33;;;;;;;0.80;0.70;;;;;;;9.68;79.35;97278.50;5100380;28;20497;-84
2021/04/04 05:55:05;;;;;;;2.47;1.35;;;;;;;9.42;81.50;97279.25;5056122;28;20076;-85
2021/04/04 05:57:40;;;;;;;2.25;1.80;;;;;;;9.50;82.32;97286.81;5056731;28;20032;-85
2021/04/04 06:00:08;;;;;;;2.33;1.05;;;;;;;9.70;81.60;97283.72;5056626;28;20093;-85
2021/04/04 06:03:06;;;;;;;7.28;3.85;;;;;;;10.00;81.23;97292.47;5072943;28;20024;-85
2021/04/04 06:05:40;;;;;;;2.60;2.33;;;;;;;10.17;80.62;97289.63;5073014;28;20085;-85
2021/04/04 06:08:48;;;;;;;11.30;4.15;;;;;;;10.17;81.39;97281.63;5072952;28;20028;-85
2021/04/04 06:11:33;;;;;;;5.30;3.13;;;;;;;10.65;79.35;97290.91;5056369;28;20495;-85
2021/04/04 06:14:26;;;;;;;1.17;1.10;;;;;;;10.81;77.32;97293.41;5055839;28;20651;-85
2021/04/04 06:16:53;;;;;;;1.90;1.75;;;;;;;10.65;78.64;97279.34;5073446;28;20036;-86
2021/04/04 06:19:31;;;;;;;2.08;1.45;;;;;;;11.02;77.68;97281.25;5072180;28;20047;-86
2021/04/04 06:22:34;;;;;;;1.20;0.95;;;;;;;10.98;77.25;97277.09;5070531;28;20039;-77
2021/04/04 06:25:03;;;;;;;1.27;1.20;;;;;;;10.82;75.62;97287.13;5053132;28;20546;-85
2021/04/04 06:27:41;;;;;;;1.98;0.90;;;;;;;10.73;78.18;97290.41;5070512;28;20086;-86
2021/04/04 06:33:17;;;;;;;0.80;0.68;;;;;;;10.72;78.59;97294.03;5077112;28;20067;-86
2021/04/04 06:35:49;;;;;;;1.42;0.90;;;;;;;10.86;77.78;97296.63;5056963;28;20047;-85
2021/04/04 06:38:15;;;;;;;2.38;1.13;;;;;;;10.57;78.94;97295.91;5057099;28;20086;-86
2021/04/04 06:40:50;;;;;;;0.70;0.70;;;;;;;10.39;78.38;97285.56;5058840;28;20455;-84
2021/04/04 06:43:25;;;;;;;0.68;0.40;;;;;;;10.92;77.33;97290.84;5065256;28;20049;-85
2021/04/04 06:46:09;;;;;;;1.08;0.52;;;;;;;11.42;75.03;97293.63;5056877;28;20032;-85
2021/04/04 06:48:38;;;;;;;1.75;0.80;;;;;;;11.65;73.72;97283.13;5073652;28;20477;-85
2021/04/04 06:51:27;;;;;;;1.40;0.90;;;;;;;11.32;74.19;97289.84;5072756;28;20028;-85
2021/04/04 06:53:59;;;;;;;1.92;0.60;;;;;;;11.36;72.54;97309.25;5056079;28;20032;-85
2021/04/04 06:57:01;;;;;;;1.37;0.70;;;;;;;11.16;72.51;97307.97;5072001;28;20197;-84
2021/04/04 06:59:42;;;;;;;2.17;1.67;;;;;;;11.48;72.42;97323.63;5055702;28;20028;-84
2021/04/04 07:02:11;;;;;;;0.63;0.63;;;;;;;11.35;73.54;97319.09;5072791;28;20434;-87
2021/04/04 07:04:37;;;;;;;7.72;0.95;;;;;;;11.36;73.59;97319.97;5055451;28;20023;-85
2021/04/04 07:07:02;;;;;;;3.00;1.33;;;;;;;11.30;74.66;97310.53;5072039;28;20039;-85
2021/04/04 07:09:46;;;;;;;0.57;0.57;;;;;;;11.00;75.04;97317.97;5076675;28;20054;-85
2021/04/04 07:12:34;;;;;;;0.75;0.73;;;;;;;10.76;75.54;97323.16;5072078;28;20036;-85
2021/04/04 07:15:28;;;;;;;0.75;0.75;;;;;;;10.67;75.79;97325.59;5090724;28;20023;-85
2021/04/04 07:18:09;;;;;;;1.67;0.95;;;;;;;10.88;76.77;97330.38;5090202;28;20503;-87
2021/04/04 07:20:44;;;;;;;3.22;1.48;;;;;;;11.00;76.03;97330.50;5055416;28;20522;-86
2021/04/04 07:23:47;;;;;;;1.23;1.13;;;;;;;10.47;72.64;97328.69;5072314;28;20035;-85
2021/04/04 07:26:36;;;;;;;4.85;1.92;;;;;;;10.91;71.44;97329.31;5072340;28;20610;-85
2021/04/04 07:29:19;;;;;;;2.22;1.13;;;;;;;11.25;71.56;97326.06;5055305;28;20151;-86
2021/04/04 07:32:29;;;;;;;1.52;1.42;;;;;;;11.77;67.41;97325.16;5088564;28;20032;-85
2021/04/04 07:35:03;;;;;;;2.58;1.77;;;;;;;12.07;63.96;97325.66;4971842;28;20121;-85
2021/04/04 07:37:50;;;;;;;1.35;1.08;;;;;;;12.57;64.05;97331.88;4972047;28;20108;-85
2021/04/04 07:40:25;;;;;;;3.95;1.92;;;;;;;12.66;61.67;97321.34;5041420;28;20036;-86
2021/04/04 07:43:10;;;;;;;5.50;1.50;;;;;;;12.47;63.54;97321.84;5055025;28;20161;-85
2021/04/04 07:46:16;;;;;;;2.05;1.50;;;;;;;12.32;60.43;97327.44;5055014;28;20035;-85
2021/04/04 07:49:11;;;;;;;1.90;1.15;;;;;;;11.74;54.85;97320.03;5086009;28;20532;-85
2021/04/04 07:51:41;;;;;;;0.88;0.88;;;;;;;11.86;56.18;97308.44;5089310;28;20085;-85
2021/04/04 07:54:15;;;;;;;0.50;0.38;;;;;;;12.28;53.99;97324.13;5088385;28;20055;-84
2021/04/04 07:56:57;;;;;;;1.70;1.13;;;;;;;12.76;54.41;97322.38;5054911;28;20435;-86
2021/04/04 07:59:32;;;;;;;3.10;0.67;;;;;;;13.38;54.04;97327.56;5055259;28;20054;-83
2021/04/04 08:02:04;;;;;;;0.75;0.30;;;;;;;13.22;52.88;97325.19;5070941;28;20282;-86
2021/04/04 08:04:39;;;;;;;0.88;0.63;;;;;;;13.73;50.66;97333.72;5089175;28;20441;-85
2021/04/04 08:07:21;;;;;;;1.02;0.93;;;;;;;13.73;50.33;97336.41;5070568;28;20040;-85
2021/04/04 08:10:10;;;;;;;1.35;0.75;;;;;;;13.30;52.22;97338.88;5054829;28;20032;-85
2021/04/04 08:12:44;;;;;;;1.25;0.70;;;;;;;12.94;53.47;97325.50;5071914;28;20067;-83
2021/04/04 08:15:16;;;;;;;0.28;0.28;;;;;;;12.82;53.67;97315.69;5071071;28;20043;-85
2021/04/04 08:17:41;;;;;;;0.65;0.35;;;;;;;12.60;56.49;97313.75;5088277;28;20052;-85
2021/04/04 08:20:16;;;;;;;0.85;0.75;;;;;;;12.81;57.12;97313.97;5088060;28;20067;-85
2021/04/04 08:22:48;;;;;;;2.55;0.77;;;;;;;12.82;56.26;97310.31;5055062;28;20441;-86
2021/04/04 08:25:21;;;;;;;0.80;0.75;;;;;;;12.66;51.99;97313.28;5054635;28;20043;-86
2021/04/04 08:27:56;;;;;;;0.50;0.50;;;;;;;12.36;52.17;97305.69;5088918;28;20024;-86
2021/04/04 08:30:47;;;;;;;0.50;0.47;;;;;;;12.22;53.22;97303.13;5073608;28;20024;-77
2021/04/04 08:33:26;;;;;;;0.95;0.28;;;;;;;12.21;52.23;97297.88;5073115;28;20103;-78
2021/04/04 08:35:53;;;;;;;0.75;0.75;;;;;;;12.56;52.54;97297.97;5073552;28;20028;-76
2021/04/04 08:38:25;;;;;;;2.35;0.40;;;;;;;12.78;50.24;97295.41;5056372;28;20111;-77
2021/04/04 08:40:55;;;;;;;0.60;0.60;;;;;;;12.78;51.42;97301.63;5073389;28;20031;-77
2021/04/04 08:43:21;;;;;;;1.45;0.90;;;;;;;12.81;49.75;97303.22;5072006;28;20479;-87
2021/04/04 08:46:23;;;;;;;3.17;1.20;;;;;;;12.74;51.06;97302.81;5088094;28;20016;-86
2021/04/04 08:48:49;;;;;;;0.93;0.90;;;;;;;12.91;51.86;97310.50;5049475;28;20024;-86
2021/04/04 08:51:17;;;;;;;0.95;0.52;;;;;;;13.07;49.71;97305.66;5053302;28;20040;-86
2021/04/04 08:53:46;;;;;;;1.40;0.93;;;;;;;13.04;48.70;97297.00;5054301;28;20039;-87
2021/04/04 08:56:14;;;;;;;0.32;0.32;;;;;;;12.64;51.68;97296.44;5070638;28;20056;-87
2021/04/04 08:58:47;;;;;;;0.85;0.85;;;;;;;12.22;50.77;97292.38;5054671;28;20464;-86
2021/04/04 09:01:37;;;;;;;0.80;0.45;;;;;;;12.02;50.81;97298.34;5087940;28;20051;-87
2021/04/04 09:04:08;;;;;;;2.58;1.05;;;;;;;11.76;53.88;97292.16;5044360;28;20389;-86
2021/04/04 09:06:43;;;;;;;0.55;0.50;;;;;;;11.40;54.34;97290.22;5070766;28;20047;-86
2021/04/04 09:09:20;;;;;;;6.90;1.30;;;;;;;11.13;56.78;97296.59;5070971;28;20536;-86
2021/04/04 09:12:01;;;;;;;0.13;0.13;;;;;;;11.01;56.90;97284.91;5054167;28;20141;-87
2021/04/04 09:14:38;;;;;;;1.25;0.85;;;;;;;11.22;54.60;97294.16;5054778;28;20218;-76
2021/04/04 09:17:10;;;;;;;1.63;1.20;;;;;;;11.48;53.22;97286.13;5073097;28;20419;-76
2021/04/04 09:19:38;;;;;;;1.42;1.20;;;;;;;11.44;53.08;97288.19;5072504;28;20020;-75
2021/04/04 09:22:12;;;;;;;1.58;0.55;;;;;;;11.63;52.21;97291.25;5071594;28;20036;-81
2021/04/04 09:25:12;;;;;;;0.65;0.65;;;;;;;11.72;50.20;97279.09;5105237;28;20423;-78
2021/04/04 09:27:40;;;;;;;0.28;0.28;;;;;;;11.67;51.55;97283.88;5055848;28;20048;-76
2021/04/04 09:30:22;;;;;;;0.38;0.28;;;;;;;11.15;48.31;97311.59;5073269;28;20070;-75
2021/04/04 09:32:51;;;;;;;2.30;0.28;;;;;;;10.52;48.71;97302.53;5075132;28;20237;-76
2021/04/04 09:35:18;;;;;;;0.88;0.88;;;;;;;9.96;55.76;97301.66;5073453;28;20031;-75
2021/04/04 09:37:48;;;;;;;0.82;0.43;;;;;;;9.72;55.62;97297.88;5056085;28;20035;-86
2021/04/04 09:40:26;;;;;;;0.65;0.55;;;;;;;9.43;61.49;97298.78;5089796;28;20481;-87
2021/04/04 09:42:51;;;;;;;7.60;1.73;;;;;;;9.48;61.59;97304.69;5049308;28;20036;-85
2021/04/04 09:45:24;;;;;;;1.50;1.20;;;;;;;9.14;61.45;97280.06;5054205;28;20103;-84
2021/04/04 09:47:52;;;;;;;2.92;1.02;;;;;;;9.37;59.57;97291.16;5054988;28;20031;-74
2021/04/04 09:50:23;;;;;;;1.25;0.85;;;;;;;9.45;62.54;97295.06;5072317;28;20403;-74
2021/04/04 09:52:50;;;;;;;1.27;1.17;;;;;;;9.51;62.98;97297.38;5091173;28;20047;-75
2021/04/04 09:55:18;;;;;;;3.20;1.08;;;;;;;9.51;60.93;97304.50;5089734;28;20044;-74
2021/04/04 09:57:49;;;;;;;0.10;0.10;;;;;;;9.55;57.06;97298.91;5072947;28;20150;-76
2021/04/04 10:00:37;;;;;;;0.95;0.80;;;;;;;9.79;56.98;97299.19;5055059;28;20043;-84
2021/04/04 10:03:14;;;;;;;1.38;0.60;;;;;;;10.00;58.13;97297.81;5062007;28;20109;-85
2021/04/04 10:05:42;;;;;;;0.20;0.20;;;;;;;10.18;56.80;97298.50;5067336;28;20020;-87
2021/04/04 10:08:12;;;;;;;0.75;0.70;;;;;;;10.24;53.78;97303.47;5061452;28;20028;-88
2021/04/04 10:10:40;;;;;;;0.95;0.52;;;;;;;10.26;52.91;97294.38;5061145;28;20038;-88
2021/04/04 10:13:06;;;;;;;0.40;0.40;;;;;;;10.17;56.95;97304.81;5060412;28;20032;-88
2021/04/04 10:15:42;;;;;;;0.17;0.17;;;;;;;9.85;56.56;97325.50;5059917;28;20031;-77
2021/04/04 10:18:08;;;;;;;2.25;0.80;;;;;;;9.85;55.71;97308.63;5076462;28;20051;-76
2021/04/04 10:20:54;;;;;;;1.27;1.02;;;;;;;9.80;57.23;97320.47;5094369;28;20027;-77
2021/04/04 10:23:28;;;;;;;1.17;0.57;;;;;;;9.38;60.27;97328.47;5075796;28;20061;-79
2021/04/04 10:26:03;;;;;;;1.52;1.25;;;;;;;9.50;58.18;97335.72;5057847;28;20119;-76
2021/04/04 10:28:42;;;;;;;0.75;0.65;;;;;;;9.63;60.03;97330.44;5094537;28;20024;-77
2021/04/04 10:31:07;;;;;;;0.85;0.85;;;;;;;9.56;59.60;97329.13;5057058;28;20034;-87
2021/04/04 10:33:33;;;;;;;0.25;0.25;;;;;;;9.50;60.59;97334.84;5073461;28;20024;-87
2021/04/04 10:36:10;;;;;;;7.47;1.92;;;;;;;9.56;63.97;97342.50;5056909;28;20081;-86
2021/04/04 10:38:35;;;;;;;0.30;0.30;;;;;;;9.55;64.43;97332.75;5057060;28;20024;-85
2021/04/04 10:41:01;;;;;;;0.50;0.50;;;;;;;9.43;66.92;97339.69;5074026;28;20038;-86
2021/04/04 10:43:37;;;;;;;4.60;1.90;;;;;;;9.57;63.01;97339.72;5055670;28;20498;-87
2021/04/04 10:46:04;;;;;;;1.85;1.25;;;;;;;9.79;60.63;97328.56;5091543;28;20495;-86
2021/04/04 10:48:33;;;;;;;5.32;2.50;;;;;;;10.05;61.95;97330.47;5072957;28;20411;-86
2021/04/04 10:50:59;;;;;;;0.60;0.60;;;;;;;10.19;58.65;97334.94;5089542;28;20031;-86
2021/04/04 10:53:25;;;;;;;0.68;0.47;;;;;;;10.12;59.58;97338.97;5056377;28;20089;-86
2021/04/04 10:55:51;;;;;;;0.52;0.43;;;;;;;9.86;61.82;97335.25;5072373;28;20040;-86
2021/04/04 10:58:24;;;;;;;1.77;0.38;;;;;;;9.87;61.27;97336.97;5072923;28;20031;-86
2021/04/04 11:00:50;;;;;;;4.88;1.83;;;;;;;9.70;65.75;97331.81;5073571;28;20403;-87
2021/04/04 11:03:16;;;;;;;1.17;1.08;;;;;;;9.59;65.29;97335.16;5056193;28;20081;-86
2021/04/04 11:05:42;;;;;;;0.80;0.47;;;;;;;9.18;71.04;97323.44;5072681;28;20019;-86
2021/04/04 11:08:08;;;;;;;2.83;1.13;;;;;;;9.11;72.11;97341.63;5073050;28;20059;-86
2021/04/04 11:10:34;;;;;;;2.13;1.00;;;;;;;8.79;73.11;97339.16;5090693;28;20024;-85
2021/04/04 11:13:01;;;;;;;1.25;0.90;;;;;;;8.66;77.48;97341.66;5074221;28;20064;-86
2021/04/04 11:15:29;;;;;;;2.75;0.95;;;;;;;8.75;80.08;97340.25;5072539;28;20119;-86
2021/04/04 11:17:56;;;;;;;4.90;1.48;;;;;;;8.72;81.71;97333.31;5089909;28;20551;-86
2021/04/04 11:20:23;;;;;;;1.75;1.58;;;;;;;8.70;80.87;97324.53;5069043;28;20051;-86
2021/04/04 11:23:27;;;;;;;2.53;1.52;;;;;;;8.66;79.29;97315.00;5082301;28;20020;-83
2021/04/04 11:36:13;;;;;;;0.90;0.85;;;;;;;8.47;83.33;97341.84;4915577;29;20131;-84
2021/04/04 11:38:39;;;;;;;1.50;1.20;;;;;;;8.39;83.77;97348.56;4956582;28;20027;-86
2021/04/04 11:41:11;;;;;;;3.63;1.80;;;;;;;8.40;84.28;97347.63;4962258;28;20014;-86
2021/04/04 11:43:37;;;;;;;1.80;1.25;;;;;;;8.34;84.72;97346.16;5047064;28;20036;-86
2021/04/04 11:46:03;;;;;;;1.70;1.02;;;;;;;8.26;84.21;97340.38;5058680;28;20621;-86
2021/04/04 11:48:30;;;;;;;0.77;0.77;;;;;;;8.35;86.52;97347.00;5090682;28;20035;-86
2021/04/04 11:51:10;;;;;;;19.17;0.95;;;;;;;8.49;83.07;97352.44;5072631;28;20028;-87
2021/04/04 11:53:47;;;;;;;3.47;1.70;;;;;;;8.39;84.72;97341.44;5072639;28;20028;-86
2021/04/04 11:56:41;;;;;;;0.90;0.90;;;;;;;8.48;81.30;97337.38;5074196;28;20635;-86
2021/04/04 11:59:11;;;;;;;2.78;0.93;;;;;;;8.39;81.41;97332.56;5072439;28;20028;-87
2021/04/04 12:01:36;;;;;;;16.17;8.00;;;;;;;8.23;83.19;97310.38;5055212;28;20127;-87
2021/04/04 12:04:19;;;;;;;15.73;8.15;;;;;;;8.44;82.88;97320.69;5072323;28;20123;-87
2021/04/04 12:06:45;;;;;;;14.85;7.05;;;;;;;8.25;83.62;97327.13;5055431;28;20031;-86
2021/04/04 12:09:11;;;;;;;10.73;6.47;;;;;;;8.54;81.98;97321.03;5071796;28;20028;-87
2021/04/04 12:11:38;;;;;;;12.23;8.40;;;;;;;8.48;79.83;97321.38;5055882;28;20550;-85